Time;durP1;ratioP1;P1;durP2;ratioP2;P2;SDS_P1;SDS_P2;PMS_P1;PMS_P2;Temp;Humidity;BMP_temperature;BMP_pressure;BME280_temperature;BME280_humidity;BME280_pressure;Samples;Min_cycle;Max_cycle;Signal;HPM_P1;HPM_P2
2021/06/03 00:00:44;;;;;;;7.45;3.80;;;;;;;19.92;58.78;100039.34;5075172;28;20027;-64
2021/06/03 00:03:10;;;;;;;8.38;3.70;;;;;;;19.89;58.94;100042.00;5069003;28;20035;-64
2021/06/03 00:05:42;;;;;;;9.00;4.03;;;;;;;19.81;59.10;100038.22;5069915;28;20020;-65
2021/06/03 00:08:07;;;;;;;7.82;3.45;;;;;;;19.86;59.02;100057.34;5077098;28;20032;-64
2021/06/03 00:10:36;;;;;;;5.32;3.70;;;;;;;19.87;59.18;100047.09;5073144;28;20028;-64
2021/06/03 00:13:03;;;;;;;9.10;3.63;;;;;;;19.83;59.33;100058.03;5073883;28;20083;-65
2021/06/03 00:15:30;;;;;;;7.65;3.70;;;;;;;19.70;59.09;100026.00;5070963;28;20076;-64
2021/06/03 00:17:56;;;;;;;8.85;3.28;;;;;;;19.85;59.17;100050.19;5076198;28;20103;-64
2021/06/03 00:20:26;;;;;;;7.55;3.47;;;;;;;19.82;59.23;100042.59;5063960;28;20112;-65
2021/06/03 00:22:51;;;;;;;13.18;3.97;;;;;;;19.82;59.41;100048.13;5080611;28;20020;-65
2021/06/03 00:25:17;;;;;;;9.77;3.83;;;;;;;19.82;59.37;100039.81;5075808;28;20040;-64
2021/06/03 00:27:42;;;;;;;8.85;3.45;;;;;;;19.81;59.45;100049.28;5075079;28;20392;-64
2021/06/03 00:30:09;;;;;;;7.82;3.53;;;;;;;19.61;59.52;100015.09;5073345;28;20034;-64
2021/06/03 00:32:35;;;;;;;11.95;3.97;;;;;;;19.80;59.43;100042.91;5075622;28;20032;-64
2021/06/03 00:35:00;;;;;;;10.40;3.65;;;;;;;19.75;59.71;100032.09;5076534;28;20036;-66
2021/06/03 00:37:26;;;;;;;7.32;3.95;;;;;;;19.79;59.83;100034.97;5075722;28;20058;-64
2021/06/03 00:39:52;;;;;;;8.07;3.70;;;;;;;19.73;59.77;100028.09;5076792;28;20090;-65
2021/06/03 00:42:17;;;;;;;7.93;3.40;;;;;;;19.76;59.81;100039.25;5076211;28;20547;-65
2021/06/03 00:44:43;;;;;;;9.45;3.95;;;;;;;19.74;59.94;100049.06;5069751;28;20508;-65
2021/06/03 00:47:09;;;;;;;10.10;4.07;;;;;;;19.73;59.89;100048.25;5066034;28;20099;-64
2021/06/03 00:49:34;;;;;;;8.50;3.85;;;;;;;19.71;60.20;100041.44;5076767;28;20049;-65
2021/06/03 00:51:59;;;;;;;11.73;3.90;;;;;;;19.67;60.19;100047.66;5066415;28;20021;-64
2021/06/03 00:54:25;;;;;;;8.32;3.33;;;;;;;19.66;60.23;100053.56;5068181;28;20044;-64
2021/06/03 00:56:50;;;;;;;6.07;3.92;;;;;;;19.64;60.46;100055.84;5064634;28;20477;-65
2021/06/03 00:59:16;;;;;;;6.72;3.53;;;;;;;19.66;60.34;100050.78;5072624;28;20016;-67
2021/06/03 01:01:41;;;;;;;9.07;3.55;;;;;;;19.65;60.41;100050.00;5070127;28;20095;-65
2021/06/03 01:04:09;;;;;;;8.25;3.88;;;;;;;19.64;60.49;100048.38;5073272;28;20024;-64
2021/06/03 01:06:34;;;;;;;9.10;3.97;;;;;;;19.62;60.66;100056.22;5074363;28;20017;-65
2021/06/03 01:09:07;;;;;;;10.85;4.10;;;;;;;19.58;60.63;100057.25;5073324;28;20111;-65
2021/06/03 01:11:40;;;;;;;7.68;3.80;;;;;;;19.59;60.64;100056.13;5076566;28;20028;-65
2021/06/03 01:14:20;;;;;;;9.82;3.90;;;;;;;19.59;60.74;100056.13;5065592;28;20485;-64
2021/06/03 01:16:47;;;;;;;8.73;4.28;;;;;;;19.57;60.65;100053.69;5068298;28;20477;-66
2021/06/03 01:19:16;;;;;;;11.73;3.63;;;;;;;19.50;60.86;100036.91;5067332;28;20033;-64
2021/06/03 01:22:03;;;;;;;9.57;3.90;;;;;;;19.54;60.98;100045.31;5078151;28;20107;-64
2021/06/03 01:24:32;;;;;;;7.78;3.63;;;;;;;19.51;60.96;100052.31;5065272;28;20042;-65
2021/06/03 01:27:01;;;;;;;8.32;3.55;;;;;;;19.47;61.07;100046.66;5074459;28;20104;-64
2021/06/03 01:29:28;;;;;;;8.90;3.92;;;;;;;19.45;61.26;100050.94;5076492;28;20028;-64
2021/06/03 01:31:55;;;;;;;9.90;3.95;;;;;;;19.46;61.06;100052.56;5071075;28;20404;-64
2021/06/03 01:34:24;;;;;;;8.02;3.58;;;;;;;19.43;61.21;100048.53;5075573;28;20474;-65
2021/06/03 01:36:50;;;;;;;8.32;3.75;;;;;;;19.43;61.22;100045.78;5073900;28;20073;-64
2021/06/03 01:39:16;;;;;;;9.45;3.85;;;;;;;19.34;61.13;100032.06;5075654;28;20036;-66
2021/06/03 01:41:42;;;;;;;9.40;3.60;;;;;;;19.40;61.12;100043.69;5075872;28;20025;-65
2021/06/03 01:44:08;;;;;;;8.30;3.70;;;;;;;19.35;61.37;100053.03;5066143;28;20040;-64
2021/06/03 01:46:35;;;;;;;9.60;3.80;;;;;;;19.37;61.19;100054.63;5069868;28;20032;-64
2021/06/03 01:49:02;;;;;;;7.53;3.67;;;;;;;19.36;61.28;100053.84;5069937;28;20028;-67
2021/06/03 01:51:28;;;;;;;8.32;3.50;;;;;;;19.36;61.36;100048.31;5068254;28;20036;-64
2021/06/03 01:53:54;;;;;;;8.60;3.67;;;;;;;19.35;61.21;100053.03;5061436;28;20119;-64
2021/06/03 01:56:21;;;;;;;10.38;4.38;;;;;;;19.37;61.31;100052.69;5072358;28;20068;-65
2021/06/03 01:58:47;;;;;;;8.63;3.40;;;;;;;19.35;61.11;100053.03;5072423;28;20119;-67
2021/06/03 02:01:13;;;;;;;9.48;3.72;;;;;;;19.35;61.20;100055.00;5068172;28;20025;-65
2021/06/03 02:03:38;;;;;;;8.45;3.85;;;;;;;19.33;61.25;100049.81;5075945;28;20024;-65
2021/06/03 02:06:05;;;;;;;10.00;3.90;;;;;;;19.33;61.45;100044.28;5071298;28;20037;-65
2021/06/03 02:08:31;;;;;;;8.32;4.07;;;;;;;19.32;61.23;100050.97;5067157;28;20039;-65
2021/06/03 02:10:57;;;;;;;6.53;3.45;;;;;;;19.31;61.31;100052.13;5074835;28;20517;-64
2021/06/03 02:13:25;;;;;;;7.10;3.83;;;;;;;19.28;61.49;100044.50;5074424;28;20036;-65
2021/06/03 02:16:08;;;;;;;6.38;3.45;;;;;;;19.28;61.39;100041.75;5068369;28;20060;-66
2021/06/03 02:18:47;;;;;;;10.55;3.58;;;;;;;19.24;61.50;100046.38;5075356;28;20032;-64
2021/06/03 02:21:13;;;;;;;8.55;4.05;;;;;;;19.23;61.64;100041.97;5070066;28;20026;-65
2021/06/03 02:23:39;;;;;;;8.35;3.92;;;;;;;19.23;61.58;100036.47;5064641;28;20028;-64
2021/06/03 02:26:05;;;;;;;8.23;3.80;;;;;;;19.19;61.60;100044.63;5073865;28;20059;-65
2021/06/03 02:28:31;;;;;;;8.65;3.80;;;;;;;19.21;61.81;100036.00;5073509;28;20024;-67
2021/06/03 02:30:59;;;;;;;10.52;4.07;;;;;;;19.20;61.65;100028.84;5075461;28;20028;-64
2021/06/03 02:33:26;;;;;;;13.65;4.85;;;;;;;19.18;61.71;100029.19;5058284;28;20052;-64
2021/06/03 02:35:51;;;;;;;9.43;4.28;;;;;;;19.16;61.72;100022.41;5064611;28;20128;-65
2021/06/03 02:38:22;;;;;;;11.13;4.20;;;;;;;19.16;61.85;100027.94;5070933;28;20025;-65
2021/06/03 02:40:50;;;;;;;8.10;4.07;;;;;;;19.14;61.88;100021.94;5068807;28;20172;-65
2021/06/03 02:43:15;;;;;;;10.35;4.15;;;;;;;19.12;62.06;100029.78;5075133;28;20097;-66
2021/06/03 02:45:40;;;;;;;9.85;3.83;;;;;;;19.11;62.07;100028.97;5065765;28;20029;-65
2021/06/03 02:48:06;;;;;;;9.52;4.13;;;;;;;19.04;61.97;100020.47;5073981;28;20067;-65
2021/06/03 02:50:32;;;;;;;9.15;4.10;;;;;;;19.08;62.02;100032.41;5068503;28;20670;-66
2021/06/03 02:56:19;;;;;;;9.02;4.28;;;;;;;19.05;62.05;100024.00;5072840;28;20075;-64
2021/06/03 02:58:45;;;;;;;7.40;3.90;;;;;;;19.04;62.25;100028.75;5066850;28;20033;-64
2021/06/03 03:01:11;;;;;;;10.90;3.97;;;;;;;19.02;62.24;100012.50;5063762;28;20037;-65
2021/06/03 03:03:36;;;;;;;13.15;4.20;;;;;;;19.02;62.11;100018.03;5066634;28;20025;-64
2021/06/03 03:06:04;;;;;;;9.20;3.55;;;;;;;19.03;62.21;100025.16;5074019;28;20025;-65
2021/06/03 03:08:29;;;;;;;8.25;3.85;;;;;;;19.02;62.17;100022.75;5074257;28;20041;-64
2021/06/03 03:10:57;;;;;;;9.93;4.05;;;;;;;18.90;62.16;100008.88;5073573;28;20039;-65
2021/06/03 03:13:22;;;;;;;9.63;4.00;;;;;;;19.00;62.14;100027.81;5071335;28;20032;-64
2021/06/03 03:15:48;;;;;;;10.38;4.55;;;;;;;18.98;62.33;100035.63;5072704;28;20032;-64
2021/06/03 03:18:14;;;;;;;10.27;4.53;;;;;;;18.82;62.33;100010.63;5064328;28;20036;-64
2021/06/03 03:20:40;;;;;;;14.07;4.60;;;;;;;18.84;62.38;100013.84;5065941;28;20389;-65
2021/06/03 03:23:06;;;;;;;7.00;3.53;;;;;;;18.95;62.34;100031.59;5075202;28;20432;-64
2021/06/03 03:26:18;;;;;;;9.13;3.60;;;;;;;18.96;62.31;100038.75;5074756;28;20068;-65
2021/06/03 03:28:44;;;;;;;7.78;3.75;;;;;;;18.92;62.48;100035.06;5065431;28;20052;-64
2021/06/03 03:31:10;;;;;;;9.27;4.22;;;;;;;18.93;62.42;100033.09;5067088;28;20075;-65
2021/06/03 03:33:36;;;;;;;11.00;3.90;;;;;;;18.93;62.58;100027.56;5069737;28;20131;-64
2021/06/03 03:36:02;;;;;;;10.68;3.92;;;;;;;18.90;62.39;100029.06;5067868;28;20075;-66
2021/06/03 03:38:28;;;;;;;12.07;4.47;;;;;;;18.89;62.62;100027.44;5059138;28;20029;-64
2021/06/03 03:40:53;;;;;;;6.90;3.80;;;;;;;18.88;62.64;100031.34;5075588;28;20074;-64
2021/06/03 03:43:19;;;;;;;8.43;3.60;;;;;;;18.87;62.53;100032.50;5063479;28;20028;-65
2021/06/03 03:45:45;;;;;;;6.55;3.72;;;;;;;18.86;62.56;100033.63;5068248;28;20043;-65
2021/06/03 03:48:10;;;;;;;8.85;3.55;;;;;;;18.87;62.63;100040.78;5075635;28;20036;-65
2021/06/03 03:50:37;;;;;;;9.95;3.88;;;;;;;18.87;62.62;100052.66;5067791;28;20029;-64
2021/06/03 03:53:05;;;;;;;6.70;3.97;;;;;;;18.88;62.75;100047.91;5068178;28;20509;-64
2021/06/03 03:55:30;;;;;;;6.15;3.65;;;;;;;18.87;62.92;100043.53;5067597;28;20025;-66
2021/06/03 03:57:56;;;;;;;8.68;3.78;;;;;;;18.82;62.78;100039.03;5077054;28;20036;-64
2021/06/03 04:00:27;;;;;;;8.35;4.03;;;;;;;18.75;62.77;100025.00;5070069;28;20041;-65
2021/06/03 04:02:53;;;;;;;8.68;4.28;;;;;;;18.55;62.96;100007.34;5075629;28;20029;-65
2021/06/03 04:05:19;;;;;;;11.48;4.45;;;;;;;18.87;62.78;100052.66;5069234;28;20071;-64
2021/06/03 04:07:45;;;;;;;7.57;3.70;;;;;;;18.88;62.91;100058.97;5061744;28;20036;-64
2021/06/03 04:10:17;;;;;;;9.82;4.35;;;;;;;18.90;63.15;100059.44;5073564;28;20032;-69
2021/06/03 04:12:42;;;;;;;7.47;3.80;;;;;;;18.78;63.05;100035.38;5070198;28;20024;-64
2021/06/03 04:15:09;;;;;;;9.30;4.60;;;;;;;18.90;63.04;100059.44;5067421;28;20139;-63
2021/06/03 04:17:35;;;;;;;10.70;4.53;;;;;;;18.90;63.05;100062.19;5066673;28;20037;-64
2021/06/03 04:20:01;;;;;;;8.07;4.28;;;;;;;18.90;63.13;100058.63;5071280;28;20020;-66
2021/06/03 04:22:26;;;;;;;8.52;4.50;;;;;;;18.90;63.16;100062.19;5070169;28;20073;-63
2021/06/03 04:24:52;;;;;;;8.88;4.40;;;;;;;18.91;63.45;100066.56;5076961;28;20032;-64
2021/06/03 04:27:18;;;;;;;11.10;4.20;;;;;;;18.81;63.28;100050.44;5076333;28;20150;-64
2021/06/03 04:29:43;;;;;;;8.65;4.28;;;;;;;18.92;63.40;100067.38;5073376;28;20033;-63
2021/06/03 04:32:09;;;;;;;8.25;4.38;;;;;;;18.92;63.50;100061.84;5071281;28;20032;-67
2021/06/03 04:34:35;;;;;;;8.27;4.25;;;;;;;18.92;63.72;100065.47;5070157;28;20048;-64
2021/06/03 04:37:01;;;;;;;6.70;4.22;;;;;;;18.92;63.67;100062.69;5075482;28;20045;-66
2021/06/03 04:39:27;;;;;;;11.32;4.40;;;;;;;18.94;63.86;100065.91;5076137;28;20028;-63
2021/06/03 04:41:53;;;;;;;8.10;4.40;;;;;;;18.92;63.95;100064.59;5077266;28;20020;-63
2021/06/03 04:44:18;;;;;;;8.68;4.57;;;;;;;18.93;63.95;100061.53;5064798;28;20034;-63
2021/06/03 04:46:44;;;;;;;8.35;4.28;;;;;;;18.91;64.18;100054.69;5069187;28;20025;-63
2021/06/03 04:49:09;;;;;;;10.13;4.68;;;;;;;18.98;64.15;100058.56;5071837;28;20478;-63
2021/06/03 04:51:38;;;;;;;9.82;4.55;;;;;;;18.98;64.34;100058.56;5067938;28;20033;-64
2021/06/03 04:54:04;;;;;;;10.13;4.68;;;;;;;18.98;64.43;100060.50;5068541;28;20040;-64
2021/06/03 04:56:29;;;;;;;9.07;4.25;;;;;;;18.97;64.53;100056.13;5066141;28;20028;-63
2021/06/03 04:58:55;;;;;;;11.77;4.43;;;;;;;18.96;64.69;100063.59;5073884;28;20056;-64
2021/06/03 05:01:20;;;;;;;10.38;4.43;;;;;;;18.97;64.84;100062.47;5065904;28;20028;-64
2021/06/03 05:03:45;;;;;;;13.13;4.85;;;;;;;18.98;64.89;100066.84;5076669;28;20401;-65
2021/06/03 05:06:11;;;;;;;13.18;4.97;;;;;;;19.00;64.83;100055.44;5074996;28;20388;-65
2021/06/03 05:08:37;;;;;;;9.35;4.97;;;;;;;19.00;65.04;100055.44;5076413;28;20028;-64
2021/06/03 05:11:02;;;;;;;8.88;4.40;;;;;;;19.02;65.32;100066.97;5071426;28;20583;-64
2021/06/03 05:13:30;;;;;;;8.10;4.05;;;;;;;19.03;65.26;100057.53;5063436;28;20577;-63
2021/06/03 05:15:56;;;;;;;8.57;4.30;;;;;;;19.05;65.44;100062.69;5070810;28;20115;-64
2021/06/03 05:18:21;;;;;;;7.78;4.30;;;;;;;19.07;65.39;100055.66;5075718;28;20071;-64
2021/06/03 05:20:47;;;;;;;8.05;4.40;;;;;;;19.09;65.51;100049.81;5070227;28;20028;-65
2021/06/03 05:23:14;;;;;;;10.55;4.70;;;;;;;19.10;65.62;100054.16;5074791;28;20032;-63
2021/06/03 05:25:39;;;;;;;7.57;4.43;;;;;;;19.10;65.54;100048.66;5075370;28;20040;-64
2021/06/03 05:28:05;;;;;;;10.85;4.75;;;;;;;19.11;65.48;100047.50;5063393;28;20032;-63
2021/06/03 05:30:31;;;;;;;11.23;5.07;;;;;;;19.09;65.57;100050.63;5062466;28;20031;-65
2021/06/03 05:32:58;;;;;;;13.00;5.00;;;;;;;18.98;65.49;100038.38;5066787;28;20048;-64
2021/06/03 05:35:24;;;;;;;13.13;5.00;;;;;;;19.07;65.70;100055.66;5071874;28;20028;-64
2021/06/03 05:37:50;;;;;;;8.57;4.22;;;;;;;19.08;65.76;100051.75;5075178;28;20028;-64
2021/06/03 05:40:21;;;;;;;7.93;4.53;;;;;;;19.07;65.90;100050.16;5073333;28;20037;-66
2021/06/03 05:42:51;;;;;;;9.00;4.50;;;;;;;19.06;65.86;100056.81;5069396;28;20130;-63
2021/06/03 05:45:18;;;;;;;10.65;4.95;;;;;;;19.03;65.85;100061.09;5065734;28;20036;-66
2021/06/03 05:47:44;;;;;;;7.15;4.20;;;;;;;19.05;65.81;100057.16;5067644;28;20028;-64
2021/06/03 05:50:12;;;;;;;8.93;4.43;;;;;;;19.05;65.83;100071.00;5074289;28;20052;-63
2021/06/03 05:52:38;;;;;;;9.43;4.50;;;;;;;19.03;65.79;100066.59;5059979;28;20025;-63
2021/06/03 05:55:06;;;;;;;10.88;5.18;;;;;;;19.07;65.97;100071.44;5070767;28;20024;-64
2021/06/03 05:57:32;;;;;;;6.47;4.20;;;;;;;19.09;65.78;100083.78;5076020;28;20033;-67
2021/06/03 05:59:57;;;;;;;8.02;4.30;;;;;;;19.09;65.71;100081.00;5063551;28;20071;-64
2021/06/03 06:02:31;;;;;;;9.43;4.60;;;;;;;19.11;65.81;100092.53;5066368;28;20056;-65
2021/06/03 06:07:52;;;;;;;6.13;3.88;;;;;;;19.13;65.67;100086.66;5092335;28;20040;-64
2021/06/03 06:10:17;;;;;;;7.13;4.20;;;;;;;19.14;65.53;100082.75;5064977;28;20021;-58
2021/06/03 06:12:42;;;;;;;11.70;4.88;;;;;;;19.17;66.02;100102.19;5073352;28;20035;-56
2021/06/03 06:15:08;;;;;;;7.47;4.10;;;;;;;19.24;65.58;100098.06;5069181;28;20036;-57
2021/06/03 06:17:33;;;;;;;10.18;4.40;;;;;;;19.30;65.47;100088.38;5075090;28;20489;-59
2021/06/03 06:19:59;;;;;;;9.30;4.38;;;;;;;19.37;65.40;100109.91;5071406;28;20012;-57
2021/06/03 06:22:24;;;;;;;9.18;4.20;;;;;;;19.39;65.28;100108.41;5071585;28;20031;-55
2021/06/03 06:24:50;;;;;;;9.32;3.53;;;;;;;19.39;65.20;100100.13;5072938;28;20086;-57
2021/06/03 06:27:15;;;;;;;8.00;3.78;;;;;;;19.52;64.68;100112.00;5071265;28;20059;-58
2021/06/03 06:29:40;;;;;;;8.93;3.75;;;;;;;19.57;64.70;100122.00;5066294;28;20055;-57
2021/06/03 06:32:06;;;;;;;12.05;4.47;;;;;;;19.61;64.59;100114.66;5065903;28;20052;-54
2021/06/03 06:34:32;;;;;;;8.82;4.13;;;;;;;19.69;64.33;100118.44;5074687;28;20068;-55
2021/06/03 06:36:57;;;;;;;7.05;3.80;;;;;;;19.63;64.24;100104.84;5072306;28;20082;-53
2021/06/03 06:39:23;;;;;;;6.90;3.80;;;;;;;19.75;64.11;100111.53;5073072;28;20032;-56
2021/06/03 06:41:48;;;;;;;9.35;4.45;;;;;;;19.79;63.97;100117.97;5068193;28;20021;-56
2021/06/03 06:44:14;;;;;;;6.38;4.18;;;;;;;19.83;63.56;100121.66;5068292;28;20057;-55
2021/06/03 06:46:39;;;;;;;7.07;4.88;;;;;;;19.86;63.54;100125.72;5065453;28;20091;-56
2021/06/03 06:49:05;;;;;;;5.90;3.10;;;;;;;19.89;63.51;100123.06;5066422;28;20031;-53
2021/06/03 06:51:30;;;;;;;6.97;4.40;;;;;;;19.93;63.50;100125.94;5061497;28;20044;-59
2021/06/03 06:53:56;;;;;;;6.68;3.72;;;;;;;19.96;63.18;100136.28;5067339;28;20492;-53
2021/06/03 06:56:21;;;;;;;8.05;3.92;;;;;;;19.94;63.01;100122.81;5073268;28;20056;-57
2021/06/03 06:58:47;;;;;;;5.93;3.20;;;;;;;20.00;63.03;100137.22;5070963;28;20384;-57
2021/06/03 07:01:12;;;;;;;9.93;4.38;;;;;;;20.03;62.92;100135.72;5069979;28;20047;-56
2021/06/03 07:03:37;;;;;;;8.90;5.05;;;;;;;20.07;63.00;100140.19;5069692;28;20024;-55
2021/06/03 07:06:03;;;;;;;7.93;4.07;;;;;;;20.09;62.80;100150.91;5072700;28;20020;-59
2021/06/03 07:08:29;;;;;;;6.45;2.90;;;;;;;20.10;62.66;100145.03;5069342;28;20074;-58
2021/06/03 07:10:55;;;;;;;11.40;4.55;;;;;;;20.13;62.60;100151.84;5070656;28;20032;-59
2021/06/03 07:13:21;;;;;;;6.93;3.40;;;;;;;20.13;62.43;100158.16;5072104;28;20485;-59
2021/06/03 07:15:47;;;;;;;6.45;3.78;;;;;;;20.16;62.32;100147.56;5067959;28;20028;-60
2021/06/03 07:18:12;;;;;;;13.45;4.10;;;;;;;20.17;62.23;100146.41;5078163;28;20492;-59
2021/06/03 07:20:38;;;;;;;7.85;5.10;;;;;;;20.20;62.44;100149.28;5079236;28;20028;-58
2021/06/03 07:23:05;;;;;;;7.63;4.07;;;;;;;20.25;62.16;100148.22;5067953;28;20092;-58
2021/06/03 07:25:32;;;;;;;10.77;5.10;;;;;;;20.27;62.14;100149.47;5077172;28;20054;-59
2021/06/03 07:27:58;;;;;;;7.10;3.35;;;;;;;20.31;62.12;100146.81;5075806;28;20025;-59
2021/06/03 07:30:25;;;;;;;6.43;4.05;;;;;;;20.33;62.04;100133.44;5074511;28;20031;-58
2021/06/03 07:32:51;;;;;;;9.82;4.88;;;;;;;20.39;61.85;100154.16;5071603;28;20436;-58
2021/06/03 07:35:19;;;;;;;10.88;6.05;;;;;;;20.41;61.86;100143.56;5067984;28;20043;-59
2021/06/03 07:37:46;;;;;;;7.28;4.25;;;;;;;20.49;61.91;100149.28;5068685;28;20039;-58
2021/06/03 07:40:17;;;;;;;7.40;3.83;;;;;;;20.54;61.64;100151.81;5072293;28;20111;-59
2021/06/03 07:42:43;;;;;;;5.93;3.50;;;;;;;20.57;61.60;100159.41;5068760;28;20051;-59
2021/06/03 07:45:11;;;;;;;8.30;3.97;;;;;;;20.58;61.31;100163.81;5068284;28;20054;-59
2021/06/03 07:47:38;;;;;;;5.25;3.10;;;;;;;20.63;61.26;100162.75;5061807;28;20403;-59
2021/06/03 07:50:05;;;;;;;8.40;3.40;;;;;;;20.66;61.37;100164.81;5062487;28;20033;-59
2021/06/03 07:52:32;;;;;;;8.90;3.80;;;;;;;20.71;61.15;100161.78;5064208;28;20035;-61
2021/06/03 07:54:57;;;;;;;9.05;3.83;;;;;;;20.71;61.04;100164.56;5060197;28;20564;-59
2021/06/03 07:57:23;;;;;;;7.38;3.50;;;;;;;20.84;61.02;100182.75;5085690;28;20502;-59
2021/06/03 07:59:48;;;;;;;5.75;4.20;;;;;;;20.89;61.00;100190.84;5069110;28;20111;-59
2021/06/03 08:02:14;;;;;;;9.65;3.95;;;;;;;20.91;60.72;100191.25;5064902;28;20037;-59
2021/06/03 08:04:39;;;;;;;8.55;5.32;;;;;;;20.94;60.69;100205.56;5070799;28;20028;-59
2021/06/03 08:07:05;;;;;;;8.93;3.75;;;;;;;20.94;60.47;100200.84;5076681;28;20127;-60
2021/06/03 08:09:30;;;;;;;9.77;4.13;;;;;;;20.95;60.41;100209.97;5067689;28;20024;-61
2021/06/03 08:11:58;;;;;;;6.60;3.45;;;;;;;20.87;60.48;100195.09;5070759;28;20178;-60
2021/06/03 08:14:23;;;;;;;7.13;4.15;;;;;;;20.99;60.54;100214.44;5067263;28;20039;-59
2021/06/03 08:16:48;;;;;;;6.78;3.47;;;;;;;21.05;60.50;100217.78;5063311;28;20037;-59
2021/06/03 08:19:16;;;;;;;8.13;4.00;;;;;;;21.12;60.38;100217.16;5072508;28;20387;-59
2021/06/03 08:21:41;;;;;;;8.50;3.03;;;;;;;21.19;60.35;100220.94;5074380;28;20028;-59
2021/06/03 08:24:07;;;;;;;5.82;3.42;;;;;;;21.07;59.98;100210.72;5076158;28;20044;-58
2021/06/03 08:26:32;;;;;;;8.65;3.90;;;;;;;21.30;59.87;100237.03;5075008;28;20044;-59
2021/06/03 08:28:58;;;;;;;8.77;4.00;;;;;;;21.35;59.86;100245.91;5074596;28;20035;-59
2021/06/03 08:31:25;;;;;;;6.20;3.67;;;;;;;21.43;59.86;100235.00;5075910;28;20103;-59
2021/06/03 08:33:51;;;;;;;7.25;4.00;;;;;;;21.47;59.64;100241.44;5075666;28;20041;-60
2021/06/03 08:36:16;;;;;;;7.00;3.55;;;;;;;21.50;59.31;100244.31;5073685;28;20028;-59
2021/06/03 08:38:42;;;;;;;5.40;3.45;;;;;;;21.61;59.68;100246.59;5060926;28;20039;-59
2021/06/03 08:41:07;;;;;;;6.78;3.65;;;;;;;21.72;59.44;100244.91;5075197;28;20052;-58
2021/06/03 08:43:33;;;;;;;6.55;3.30;;;;;;;21.78;58.92;100253.72;5075084;28;20050;-59
2021/06/03 08:46:02;;;;;;;5.85;3.13;;;;;;;21.61;58.77;100227.97;5075643;28;20024;-58
2021/06/03 08:48:27;;;;;;;6.60;3.47;;;;;;;21.73;58.57;100254.84;5075251;28;20028;-59
2021/06/03 08:50:56;;;;;;;7.13;3.53;;;;;;;21.71;58.55;100254.38;5074197;28;20036;-59
2021/06/03 08:53:22;;;;;;;6.22;3.40;;;;;;;21.69;58.71;100257.50;5065386;28;20374;-59
2021/06/03 08:58:33;;;;;;;6.47;3.77;;;;;;;21.69;58.79;100254.72;5068605;28;20116;-59
2021/06/03 09:01:00;;;;;;;6.53;3.05;;;;;;;21.74;58.76;100242.53;5073800;28;20299;-58
2021/06/03 09:03:28;;;;;;;6.68;3.05;;;;;;;21.79;58.93;100245.06;5067217;28;20024;-59
2021/06/03 09:05:54;;;;;;;9.20;3.60;;;;;;;21.81;58.69;100253.84;5066508;28;20476;-59
2021/06/03 09:08:19;;;;;;;8.32;3.50;;;;;;;21.82;58.54;100249.88;5070243;28;20390;-59
2021/06/03 09:10:48;;;;;;;13.20;3.80;;;;;;;21.85;58.36;100249.16;5062612;28;20029;-59
2021/06/03 09:13:19;;;;;;;5.53;3.38;;;;;;;21.88;58.38;100252.41;5064402;28;20040;-59
2021/06/03 09:15:54;;;;;;;6.75;3.72;;;;;;;21.87;58.37;100246.03;5066258;28;20036;-59
2021/06/03 09:18:28;;;;;;;7.20;3.90;;;;;;;21.93;58.25;100261.28;5063862;28;20032;-59
2021/06/03 09:20:55;;;;;;;9.93;4.05;;;;;;;22.00;58.39;100263.41;5079528;28;20032;-59
2021/06/03 09:23:29;;;;;;;8.38;3.67;;;;;;;21.95;57.79;100249.78;5064132;28;20420;-60
2021/06/03 09:25:56;;;;;;;6.22;3.60;;;;;;;22.12;57.65;100270.81;5062361;28;20052;-59
2021/06/03 09:28:31;;;;;;;7.68;3.40;;;;;;;22.12;57.56;100277.19;5074336;28;20048;-59
2021/06/03 09:30:56;;;;;;;5.80;3.20;;;;;;;22.14;57.55;100285.97;5071165;28;20043;-58
2021/06/03 09:33:58;;;;;;;5.75;3.25;;;;;;;22.22;57.50;100286.13;5059949;28;20053;-59
2021/06/03 09:36:31;;;;;;;9.73;3.50;;;;;;;22.27;57.34;100286.63;5064308;28;20037;-59
2021/06/03 09:39:06;;;;;;;7.40;3.20;;;;;;;22.33;57.25;100298.28;5066235;28;20039;-59
2021/06/03 09:41:33;;;;;;;6.38;3.20;;;;;;;22.40;57.18;100306.81;5074373;28;20060;-61
2021/06/03 09:44:06;;;;;;;8.35;3.45;;;;;;;22.51;57.02;100309.03;5074522;28;20086;-59
2021/06/03 09:46:40;;;;;;;9.43;4.15;;;;;;;22.63;56.68;100303.38;5072222;28;20040;-61
2021/06/03 09:49:07;;;;;;;10.32;5.25;;;;;;;22.71;56.59;100310.69;5072828;28;20059;-59
2021/06/03 09:51:37;;;;;;;5.80;3.60;;;;;;;22.81;56.29;100319.63;5071838;28;20036;-60
2021/06/03 09:54:11;;;;;;;7.93;3.83;;;;;;;22.87;56.24;100312.59;5059531;28;20036;-59
2021/06/03 09:56:45;;;;;;;11.95;3.50;;;;;;;22.94;55.68;100315.53;5058781;28;20146;-59
2021/06/03 09:59:16;;;;;;;8.38;4.03;;;;;;;22.95;55.56;100326.28;5059988;28;20032;-60
2021/06/03 10:01:48;;;;;;;8.93;3.83;;;;;;;22.97;55.50;100325.09;5063178;28;20028;-60
2021/06/03 10:04:17;;;;;;;7.45;3.85;;;;;;;23.02;55.54;100322.03;5069355;28;20043;-59
2021/06/03 10:07:17;;;;;;;7.22;3.70;;;;;;;23.11;55.06;100322.63;5068880;28;20028;-59
2021/06/03 10:09:58;;;;;;;8.88;3.58;;;;;;;23.10;55.10;100318.22;5060460;28;20043;-59
2021/06/03 10:12:23;;;;;;;6.20;3.50;;;;;;;23.08;55.30;100318.59;5065368;28;20033;-59
2021/06/03 10:14:50;;;;;;;8.20;3.45;;;;;;;23.10;55.24;100310.69;5062479;28;20083;-59
2021/06/03 10:17:20;;;;;;;6.72;3.22;;;;;;;23.01;55.12;100289.84;5061823;28;20389;-60
2021/06/03 10:19:47;;;;;;;6.53;3.42;;;;;;;23.16;55.33;100304.84;5061654;28;20029;-60
2021/06/03 10:22:14;;;;;;;6.45;3.20;;;;;;;23.19;55.37;100301.34;5071311;28;20461;-58
2021/06/03 10:24:51;;;;;;;7.43;3.17;;;;;;;23.20;55.23;100311.31;5061260;28;20031;-58
2021/06/03 10:27:19;;;;;;;8.05;3.53;;;;;;;23.16;54.85;100315.97;5063730;28;20393;-59
2021/06/03 10:29:45;;;;;;;5.75;3.45;;;;;;;23.18;55.02;100320.00;5065185;28;20115;-58
2021/06/03 10:32:10;;;;;;;8.52;2.97;;;;;;;23.22;54.88;100318.13;5070277;28;20036;-59
2021/06/03 10:34:36;;;;;;;7.20;3.40;;;;;;;23.20;54.94;100311.31;5061003;28;20048;-58
2021/06/03 10:37:05;;;;;;;6.93;3.60;;;;;;;23.27;54.69;100317.81;5064620;28;20046;-59
2021/06/03 10:39:32;;;;;;;7.07;3.58;;;;;;;23.35;54.75;100326.28;5059590;28;20025;-59
2021/06/03 10:42:01;;;;;;;7.90;3.00;;;;;;;23.41;54.47;100308.16;5061350;28;20036;-57
2021/06/03 10:44:27;;;;;;;8.77;2.97;;;;;;;23.49;54.02;100326.59;5066253;28;20036;-58
2021/06/03 10:46:54;;;;;;;7.55;2.80;;;;;;;23.42;54.13;100304.97;5074533;28;20491;-58
2021/06/03 10:49:22;;;;;;;6.30;3.20;;;;;;;23.66;53.30;100318.94;5062319;28;20060;-59
2021/06/03 10:51:49;;;;;;;10.68;3.20;;;;;;;23.63;53.44;100317.69;5079007;28;20028;-59
2021/06/03 10:54:34;;;;;;;7.30;3.50;;;;;;;23.64;53.52;100318.50;5078227;28;20077;-58
2021/06/03 10:57:00;;;;;;;9.00;3.45;;;;;;;23.53;53.45;100309.94;5069143;28;20078;-58
2021/06/03 10:59:30;;;;;;;6.68;2.88;;;;;;;23.69;53.51;100321.78;5078555;28;20024;-59
2021/06/03 11:01:57;;;;;;;7.45;3.08;;;;;;;23.71;53.65;100322.22;5066016;28;20481;-58
2021/06/03 11:04:30;;;;;;;6.63;3.08;;;;;;;23.73;53.47;100317.06;5078340;28;20028;-59
2021/06/03 11:06:57;;;;;;;5.85;2.75;;;;;;;23.73;53.07;100321.84;5077600;28;20056;-58
2021/06/03 11:09:31;;;;;;;5.40;3.00;;;;;;;23.78;53.14;100315.16;5074803;28;20021;-58
2021/06/03 11:12:10;;;;;;;8.10;3.20;;;;;;;23.73;53.26;100308.72;5070438;28;20088;-58
2021/06/03 11:14:57;;;;;;;5.95;2.88;;;;;;;23.92;53.08;100320.19;5059994;28;20036;-58
2021/06/03 11:17:49;;;;;;;5.47;3.13;;;;;;;23.99;52.79;100320.31;5069999;28;20035;-59
2021/06/03 11:20:14;;;;;;;7.43;2.70;;;;;;;23.98;52.68;100318.72;5069808;28;20182;-61
2021/06/03 11:22:40;;;;;;;6.65;2.88;;;;;;;23.97;52.96;100331.81;5061806;28;20055;-59
2021/06/03 11:25:06;;;;;;;7.43;3.15;;;;;;;23.90;52.77;100306.59;5069557;28;20032;-59
2021/06/03 11:27:37;;;;;;;6.20;2.80;;;;;;;24.00;52.81;100319.94;5071943;28;20111;-61
2021/06/03 11:30:06;;;;;;;7.50;3.42;;;;;;;24.04;52.96;100312.47;5068546;28;20039;-60
2021/06/03 11:32:38;;;;;;;5.10;2.88;;;;;;;24.10;52.69;100310.16;5067369;28;20031;-60
2021/06/03 11:35:08;;;;;;;6.00;2.95;;;;;;;24.18;52.40;100319.44;5072026;28;20052;-57